createdAt,value
2022-11-21T00:01:26.046Z,64.25
2022-11-21T00:03:53.647Z,60.63
2022-11-21T00:06:21.054Z,57.42
2022-11-21T00:08:48.264Z,53.03
2022-11-21T00:11:15.565Z,55.72
2022-11-21T00:13:43.472Z,55.42
2022-11-21T00:16:13.945Z,53.20
2022-11-21T00:18:42.392Z,59.25
2022-11-21T00:21:13.657Z,52.03
2022-11-21T00:23:41.627Z,59.42
2022-11-21T00:26:10.351Z,48.58
2022-11-21T00:28:37.829Z,64.82
2022-11-21T00:31:06.238Z,62.65
2022-11-21T00:33:37.268Z,54.17
2022-11-21T00:36:09.120Z,64.43
2022-11-21T00:38:36.880Z,45.00
2022-11-21T00:41:04.325Z,55.47
2022-11-21T00:43:32.768Z,57.75
2022-11-21T00:46:01.444Z,57.88
2022-11-21T00:48:29.917Z,56.47
2022-11-21T00:50:57.128Z,62.45
2022-11-21T00:53:24.282Z,53.17
2022-11-21T00:55:51.156Z,60.35
2022-11-21T00:58:18.533Z,64.45
2022-11-21T01:00:45.452Z,60.15
2022-11-21T01:03:12.838Z,50.03
2022-11-21T01:05:39.664Z,63.53
2022-11-21T01:08:06.827Z,57.00
2022-11-21T01:10:35.556Z,66.03
2022-11-21T01:13:03.240Z,66.93
2022-11-21T01:15:30.202Z,71.70
2022-11-21T01:17:57.306Z,61.72
2022-11-21T01:20:24.159Z,67.95
2022-11-21T01:22:51.542Z,60.28
2022-11-21T01:25:18.506Z,64.15
2022-11-21T01:27:45.609Z,58.97
2022-11-21T01:30:14.475Z,63.35
2022-11-21T01:32:41.657Z,63.15
2022-11-21T01:35:08.790Z,62.17
2022-11-21T01:37:35.905Z,54.55
2022-11-21T01:40:03.548Z,55.10
2022-11-21T01:42:46.963Z,65.68
2022-11-21T01:45:53.236Z,60.08
2022-11-21T01:48:32.580Z,64.28
2022-11-21T01:51:07.780Z,58.72
2022-11-21T01:53:36.561Z,62.60
2022-11-21T01:56:03.960Z,63.50
2022-11-21T01:58:32.648Z,67.00
2022-11-21T02:00:59.913Z,61.53
2022-11-21T02:03:31.612Z,63.78
2022-11-21T02:05:59.310Z,51.63
2022-11-21T02:08:27.486Z,62.65
2022-11-21T02:11:09.094Z,56.50
2022-11-21T02:13:36.207Z,60.42
2022-11-21T02:16:03.252Z,65.15
2022-11-21T02:18:30.386Z,59.35
2022-11-21T02:21:05.226Z,54.55
2022-11-21T02:24:03.585Z,66.35
2022-11-21T02:26:30.735Z,61.03
2022-11-21T02:28:58.427Z,59.05
2022-11-21T02:31:25.305Z,59.95
2022-11-21T02:33:52.428Z,61.00
2022-11-21T02:36:48.743Z,62.35
2022-11-21T02:39:33.874Z,58.60
2022-11-21T02:42:23.702Z,62.05
2022-11-21T02:44:56.958Z,51.72
2022-11-21T02:50:00.100Z,52.20
2022-11-21T02:52:27.267Z,62.17
2022-11-21T02:54:54.380Z,51.90
2022-11-21T02:57:21.256Z,43.92
2022-11-21T02:59:48.745Z,53.15
2022-11-21T03:02:15.634Z,47.10
2022-11-21T03:04:42.827Z,59.22
2022-11-21T03:07:09.747Z,59.55
2022-11-21T03:09:36.934Z,52.35
2022-11-21T03:12:08.282Z,56.90
2022-11-21T03:14:36.765Z,57.40
2022-11-21T03:17:04.562Z,58.28
2022-11-21T03:19:31.708Z,59.15
2022-11-21T03:21:58.571Z,53.40
2022-11-21T03:24:25.890Z,61.13
2022-11-21T03:26:53.120Z,53.30
2022-11-21T03:29:20.287Z,67.40
2022-11-21T03:31:47.171Z,47.33
2022-11-21T03:34:14.665Z,50.30
2022-11-21T03:36:41.589Z,57.95
2022-11-21T03:39:09.003Z,54.72
2022-11-21T03:41:35.902Z,50.55
2022-11-21T03:44:06.149Z,47.42
2022-11-21T03:46:35.357Z,49.15
2022-11-21T03:49:02.612Z,43.28
2022-11-21T03:51:29.931Z,45.78
2022-11-21T03:53:57.084Z,46.00
2022-11-21T03:56:24.582Z,41.20
2022-11-21T03:58:52.292Z,52.60
2022-11-21T04:01:19.689Z,42.20
2022-11-21T04:03:47.185Z,49.67
2022-11-21T04:06:15.787Z,42.83
2022-11-21T04:08:43.341Z,46.90
2022-11-21T04:11:10.433Z,50.88
2022-11-21T04:13:38.229Z,42.58
2022-11-21T04:16:05.539Z,42.50
2022-11-21T04:18:34.679Z,41.33
2022-11-21T04:21:04.420Z,45.83
2022-11-21T04:23:31.903Z,50.10
2022-11-21T04:25:59.560Z,41.15
2022-11-21T04:28:26.804Z,45.92
2022-11-21T04:30:55.131Z,48.20
2022-11-21T04:33:22.787Z,51.13
2022-11-21T04:35:49.671Z,49.65
2022-11-21T04:38:17.037Z,54.20
2022-11-21T04:40:45.364Z,45.10
2022-11-21T04:43:12.518Z,48.92
2022-11-21T04:45:39.393Z,44.60
2022-11-21T04:48:06.711Z,49.00
2022-11-21T04:50:33.867Z,44.97
2022-11-21T04:53:01.029Z,41.50
2022-11-21T04:55:31.219Z,45.28
2022-11-21T04:57:59.032Z,50.33
2022-11-21T05:00:25.930Z,46.33
2022-11-21T05:02:53.151Z,45.25
2022-11-21T05:05:20.092Z,53.67
2022-11-21T05:07:47.208Z,44.05
2022-11-21T05:10:14.065Z,52.20
2022-11-21T05:12:59.711Z,49.97
2022-11-21T05:15:26.588Z,46.83
2022-11-21T05:17:53.758Z,46.10
2022-11-21T05:20:20.593Z,52.80
2022-11-21T05:22:52.114Z,45.45
2022-11-21T05:25:19.074Z,54.13
2022-11-21T05:27:46.543Z,46.30
2022-11-21T05:30:13.669Z,42.22
2022-11-21T05:32:40.786Z,46.63
2022-11-21T05:35:08.282Z,56.90
2022-11-21T05:37:35.443Z,47.20
2022-11-21T05:40:02.316Z,51.22
2022-11-21T05:42:48.260Z,50.05
2022-11-21T05:45:15.143Z,47.08
2022-11-21T05:47:42.411Z,53.53
2022-11-21T05:50:09.523Z,48.50
2022-11-21T05:52:36.693Z,46.03
2022-11-21T05:55:03.680Z,47.17
2022-11-21T05:57:31.166Z,48.03
2022-11-21T05:59:58.027Z,48.97
2022-11-21T06:02:43.773Z,50.90
2022-11-21T06:05:10.662Z,52.25
2022-11-21T06:07:37.839Z,54.20
2022-11-21T06:10:05.202Z,55.67
2022-11-21T06:12:32.583Z,53.13
2022-11-21T06:14:59.414Z,45.72
2022-11-21T06:17:26.855Z,59.22
2022-11-21T06:19:53.797Z,50.80
2022-11-21T06:22:20.965Z,52.55
2022-11-21T06:24:47.863Z,46.45
2022-11-21T06:27:14.969Z,51.85
2022-11-21T06:29:41.811Z,51.40
2022-11-21T06:32:09.018Z,53.25
2022-11-21T06:34:35.860Z,47.35
2022-11-21T06:37:03.020Z,53.63
2022-11-21T06:39:29.847Z,55.40
2022-11-21T06:41:57.053Z,47.05
2022-11-21T06:44:24.055Z,48.50
2022-11-21T06:46:51.771Z,48.67
2022-11-21T06:49:19.052Z,47.92
2022-11-21T06:51:46.185Z,46.47
2022-11-21T06:54:16.712Z,57.15
2022-11-21T06:56:44.542Z,46.08
2022-11-21T06:59:11.471Z,46.10
2022-11-21T07:01:38.679Z,52.92
2022-11-21T07:04:05.621Z,47.22
2022-11-21T07:06:34.963Z,51.55
2022-11-21T07:11:49.018Z,48.97
2022-11-21T07:14:17.214Z,45.33
2022-11-21T07:16:44.309Z,50.40
2022-11-21T07:19:11.771Z,45.78
2022-11-21T07:21:38.911Z,50.97
2022-11-21T07:24:06.219Z,51.85
2022-11-21T07:26:33.378Z,46.88
2022-11-21T07:29:00.278Z,53.63
2022-11-21T07:31:27.647Z,51.17
2022-11-21T07:33:54.662Z,48.35
2022-11-21T07:36:21.992Z,46.47
2022-11-21T07:38:48.852Z,43.00
2022-11-21T07:41:15.993Z,48.38
2022-11-21T07:43:42.847Z,46.60
2022-11-21T07:46:10.266Z,42.63
2022-11-21T07:48:37.396Z,46.83
2022-11-21T07:51:05.955Z,43.67
2022-11-21T07:53:33.025Z,40.25
2022-11-21T07:56:00.235Z,41.05
2022-11-21T07:58:27.375Z,47.78
2022-11-21T08:00:54.611Z,40.13
2022-11-21T08:03:22.683Z,36.88
2022-11-21T08:05:49.968Z,41.65
2022-11-21T08:08:16.900Z,36.30
2022-11-21T08:10:45.704Z,40.92
2022-11-21T08:13:13.586Z,40.70
2022-11-21T08:15:41.321Z,41.13
2022-11-21T08:18:13.405Z,37.47
2022-11-21T08:20:40.646Z,43.28
2022-11-21T08:23:07.608Z,43.15
2022-11-21T08:25:37.104Z,40.10
2022-11-21T08:28:04.555Z,41.30
2022-11-21T08:30:33.317Z,35.80
2022-11-21T08:33:01.295Z,40.95
2022-11-21T08:35:29.288Z,37.65
2022-11-21T08:38:02.523Z,38.25
2022-11-21T08:40:31.477Z,39.03
2022-11-21T08:43:02.698Z,41.67
2022-11-21T08:45:30.198Z,33.97
2022-11-21T08:47:57.149Z,33.55
2022-11-21T08:50:24.759Z,36.10
2022-11-21T08:52:51.760Z,35.63
2022-11-21T08:55:18.900Z,38.42
2022-11-21T08:57:45.766Z,32.42
2022-11-21T09:00:13.904Z,35.00
2022-11-21T09:02:40.860Z,30.48
2022-11-21T09:05:09.106Z,35.55
2022-11-21T09:07:36.547Z,34.95
2022-11-21T09:10:04.626Z,36.80
2022-11-21T09:12:31.841Z,31.02
2022-11-21T09:15:18.264Z,33.90
2022-11-21T09:18:03.229Z,31.58
2022-11-21T09:20:31.944Z,41.63
2022-11-21T09:23:08.238Z,39.67
2022-11-21T09:25:35.817Z,36.85
2022-11-21T09:28:04.561Z,33.72
2022-11-21T09:30:32.553Z,39.85
2022-11-21T09:33:04.430Z,31.70
2022-11-21T09:35:31.942Z,35.77
2022-11-21T09:37:59.517Z,35.75
2022-11-21T09:40:28.879Z,40.53
2022-11-21T09:43:18.589Z,35.03
2022-11-21T09:45:50.708Z,31.70
2022-11-21T09:48:33.166Z,30.25
2022-11-21T09:51:06.109Z,33.70
2022-11-21T09:53:37.634Z,35.88
2022-11-21T09:56:08.982Z,36.00
2022-11-21T09:58:46.988Z,35.03
2022-11-21T10:01:15.463Z,26.95
2022-11-21T10:04:03.742Z,38.80
2022-11-21T10:06:45.486Z,33.35
2022-11-21T10:09:24.063Z,36.33
2022-11-21T10:12:42.534Z,32.55
2022-11-21T10:15:29.117Z,31.30
2022-11-21T10:18:28.234Z,38.95
2022-11-21T10:21:20.302Z,41.53
2022-11-21T10:24:19.094Z,34.15
2022-11-21T10:26:53.348Z,38.45
2022-11-21T10:29:34.172Z,41.25
2022-11-21T10:32:18.225Z,34.45
2022-11-21T10:34:46.731Z,39.47
2022-11-21T10:37:19.344Z,39.03
2022-11-21T10:39:50.960Z,43.55
2022-11-21T10:42:26.640Z,42.58
2022-11-21T10:45:12.398Z,42.95
2022-11-21T10:47:39.307Z,40.95
2022-11-21T10:50:09.663Z,37.25
2022-11-21T10:53:01.442Z,43.85
2022-11-21T10:55:28.686Z,45.13
2022-11-21T10:57:55.603Z,38.08
2022-11-21T11:00:25.528Z,68.57
2022-11-21T11:02:55.441Z,98.40
2022-11-21T11:05:27.283Z,42.30
2022-11-21T11:08:11.756Z,49.40
2022-11-21T11:10:44.733Z,40.38
2022-11-21T11:13:50.963Z,44.60
2022-11-21T11:16:21.842Z,43.33
2022-11-21T11:19:17.368Z,37.15
2022-11-21T11:21:45.466Z,41.08
2022-11-21T11:24:12.381Z,40.45
2022-11-21T11:26:49.094Z,34.40
2022-11-21T11:29:18.906Z,43.10
2022-11-21T11:32:05.130Z,37.97
2022-11-21T11:34:41.110Z,43.72
2022-11-21T11:37:17.342Z,37.83
2022-11-21T11:39:44.192Z,57.08
2022-11-21T11:42:52.450Z,44.03
2022-11-21T11:46:14.730Z,48.88
2022-11-21T11:49:16.789Z,43.63
2022-11-21T11:51:46.902Z,55.35
2022-11-21T11:54:47.074Z,48.33
2022-11-21T11:57:14.417Z,42.05
2022-11-21T11:59:47.195Z,40.17
2022-11-21T12:02:20.428Z,42.78
2022-11-21T12:04:56.538Z,40.67
2022-11-21T12:08:33.256Z,38.90
2022-11-21T12:10:31.134Z,43.33
2022-11-21T12:13:14.013Z,43.40
2022-11-21T12:15:49.353Z,45.60
2022-11-21T12:18:22.259Z,43.42
2022-11-21T12:23:27.337Z,34.00
2022-11-21T12:26:18.380Z,46.58
2022-11-21T12:29:15.356Z,49.28
2022-11-21T12:32:04.735Z,40.88
2022-11-21T12:34:49.309Z,43.67
2022-11-21T12:37:43.769Z,47.17
2022-11-21T12:40:42.836Z,45.10
2022-11-21T12:43:30.990Z,41.22
2022-11-21T12:46:03.010Z,47.42
2022-11-21T12:49:09.171Z,45.30
2022-11-21T12:52:10.138Z,39.60
2022-11-21T12:54:49.553Z,44.03
2022-11-21T12:57:21.359Z,48.28
2022-11-21T12:59:58.486Z,48.10
2022-11-21T13:02:47.908Z,49.55
2022-11-21T13:05:25.021Z,44.40
2022-11-21T13:08:01.088Z,49.58
2022-11-21T13:10:28.924Z,48.30
2022-11-21T13:13:14.655Z,46.55
2022-11-21T13:15:54.778Z,42.90
2022-11-21T13:18:30.302Z,38.38
2022-11-21T13:20:57.483Z,43.50
2022-11-21T13:23:37.022Z,38.45
2022-11-21T13:26:26.042Z,71.65
2022-11-21T13:29:09.007Z,98.18
2022-11-21T13:31:36.496Z,63.30
2022-11-21T13:34:05.333Z,52.20
2022-11-21T13:36:35.938Z,74.20
2022-11-21T13:39:03.583Z,58.88
2022-11-21T13:41:55.616Z,62.53
2022-11-21T13:44:31.825Z,69.78
2022-11-21T13:47:20.571Z,52.45
2022-11-21T13:50:05.505Z,56.15
2022-11-21T13:52:49.797Z,117.10
2022-11-21T13:56:00.992Z,48.33
2022-11-21T13:58:40.049Z,51.97
2022-11-21T14:01:24.253Z,50.83
2022-11-21T14:04:22.696Z,57.60
2022-11-21T14:06:49.760Z,71.68
2022-11-21T14:09:21.779Z,150.75
2022-11-21T14:12:02.019Z,146.77
2022-11-21T14:14:49.677Z,68.10
2022-11-21T14:17:47.805Z,108.00
2022-11-21T14:20:26.092Z,126.82
2022-11-21T14:23:04.539Z,102.82
2022-11-21T14:25:40.677Z,93.55
2022-11-21T14:28:12.540Z,149.68
2022-11-21T14:30:42.783Z,63.55
2022-11-21T14:33:32.875Z,99.93
2022-11-21T14:36:21.566Z,99.00
2022-11-21T14:39:13.735Z,57.05
2022-11-21T14:41:39.600Z,116.00
2022-11-21T14:44:15.382Z,65.68
2022-11-21T14:46:43.766Z,59.80
2022-11-21T14:49:16.649Z,54.17
2022-11-21T14:55:15.068Z,54.35
2022-11-21T14:57:42.476Z,50.45
2022-11-21T15:00:43.173Z,50.08
2022-11-21T15:03:04.113Z,54.63
2022-11-21T15:06:00.832Z,56.72
2022-11-21T15:08:55.776Z,56.83
2022-11-21T15:11:12.241Z,87.50
2022-11-21T15:14:06.554Z,78.03
2022-11-21T15:16:27.632Z,78.28
2022-11-21T15:18:55.196Z,85.85
2022-11-21T15:21:22.115Z,96.53
2022-11-21T15:23:51.441Z,107.07
2022-11-21T15:26:32.975Z,107.97
2022-11-21T15:29:01.282Z,97.85
2022-11-21T15:31:28.967Z,92.35
2022-11-21T15:34:34.703Z,85.32
2022-11-21T15:37:25.441Z,64.97
2022-11-21T15:39:53.667Z,69.65
2022-11-21T15:42:32.968Z,88.88
2022-11-21T15:45:02.652Z,75.28
2022-11-21T15:47:29.725Z,75.32
2022-11-21T15:49:56.961Z,65.57
2022-11-21T15:52:23.988Z,61.42
2022-11-21T15:54:51.138Z,62.75
2022-11-21T15:59:50.922Z,67.72
2022-11-21T16:02:18.215Z,73.20
2022-11-21T16:04:46.177Z,65.43
2022-11-21T16:07:13.072Z,63.90
2022-11-21T16:09:42.083Z,60.03
2022-11-21T16:12:14.206Z,64.85
2022-11-21T16:14:41.356Z,60.88
2022-11-21T16:17:08.614Z,70.72
2022-11-21T16:19:35.782Z,54.55
2022-11-21T16:22:02.657Z,65.78
2022-11-21T16:24:29.823Z,67.82
2022-11-21T16:26:57.222Z,57.58
2022-11-21T16:29:24.379Z,75.90
2022-11-21T16:31:51.837Z,74.82
2022-11-21T16:34:20.187Z,106.63
2022-11-21T16:36:47.082Z,522.28
2022-11-21T16:39:18.281Z,903.13
2022-11-21T16:41:47.326Z,371.08
2022-11-21T16:44:16.435Z,100.85
2022-11-21T16:46:47.315Z,82.97
2022-11-21T16:49:15.307Z,68.88
2022-11-21T16:51:42.211Z,80.00
2022-11-21T16:54:10.765Z,76.78
2022-11-21T16:56:38.190Z,78.00
2022-11-21T16:59:05.394Z,71.80
2022-11-21T17:01:32.429Z,69.15
2022-11-21T17:03:59.764Z,74.65
2022-11-21T17:06:29.784Z,62.30
2022-11-21T17:09:00.877Z,72.30
2022-11-21T17:11:33.695Z,68.00
2022-11-21T17:16:30.293Z,59.72
2022-11-21T17:18:59.554Z,76.50
2022-11-21T17:21:27.860Z,77.50
2022-11-21T17:23:55.481Z,66.25
2022-11-21T17:26:24.799Z,63.60
2022-11-21T17:28:53.484Z,67.45
2022-11-21T17:31:20.864Z,72.35
2022-11-21T17:33:51.765Z,69.15
2022-11-21T17:36:29.699Z,68.75
2022-11-21T17:38:57.413Z,72.20
2022-11-21T17:41:25.385Z,68.60
2022-11-21T17:43:57.418Z,67.20
2022-11-21T17:46:25.833Z,72.63
2022-11-21T17:48:57.745Z,68.95
2022-11-21T17:51:29.099Z,65.90
2022-11-21T17:53:57.010Z,68.05
2022-11-21T17:56:26.582Z,71.03
2022-11-21T17:58:54.255Z,68.30
2022-11-21T18:01:22.067Z,59.70
2022-11-21T18:03:56.856Z,55.90
2022-11-21T18:06:25.276Z,67.65
2022-11-21T18:08:52.447Z,66.05
2022-11-21T18:11:21.721Z,61.75
2022-11-21T18:13:49.764Z,83.63
2022-11-21T18:16:19.457Z,85.47
2022-11-21T18:18:47.720Z,99.63
2022-11-21T18:21:17.719Z,80.55
2022-11-21T18:23:45.557Z,76.68
2022-11-21T18:26:21.128Z,73.72
2022-11-21T18:29:06.864Z,79.10
2022-11-21T18:31:37.717Z,82.15
2022-11-21T18:34:06.705Z,83.10
2022-11-21T18:36:33.591Z,84.35
2022-11-21T18:39:07.185Z,81.40
2022-11-21T18:41:39.097Z,84.93
2022-11-21T18:44:06.914Z,89.72
2022-11-21T18:46:35.882Z,88.05
2022-11-21T18:49:06.973Z,88.50
2022-11-21T18:51:35.839Z,91.93
2022-11-21T18:54:08.279Z,90.20
2022-11-21T18:56:38.499Z,97.35
2022-11-21T18:59:06.440Z,86.35
2022-11-21T19:01:35.284Z,90.43
2022-11-21T19:04:03.026Z,139.07
2022-11-21T19:06:30.128Z,136.15
2022-11-21T19:08:58.696Z,90.47
2022-11-21T19:11:28.572Z,93.32
2022-11-21T19:13:57.060Z,80.47
2022-11-21T19:16:25.811Z,78.68
2022-11-21T19:19:33.665Z,89.57
2022-11-21T19:21:43.818Z,78.80
2022-11-21T19:24:16.113Z,84.82
2022-11-21T19:26:43.314Z,97.65
2022-11-21T19:29:11.209Z,78.32
2022-11-21T19:31:44.647Z,86.25
2022-11-21T19:34:13.118Z,99.55
2022-11-21T19:36:40.332Z,81.15
2022-11-21T19:39:07.751Z,94.25
2022-11-21T19:41:34.700Z,102.10
2022-11-21T19:44:02.596Z,99.50
2022-11-21T19:46:34.632Z,102.90
2022-11-21T19:49:02.672Z,94.63
2022-11-21T19:51:32.354Z,100.10
2022-11-21T19:54:02.089Z,86.90
2022-11-21T19:56:29.162Z,84.47
2022-11-21T19:58:56.993Z,80.57
2022-11-21T20:01:26.450Z,88.75
2022-11-21T20:03:55.593Z,80.32
2022-11-21T20:06:31.778Z,104.95
2022-11-21T20:09:01.766Z,84.03
2022-11-21T20:11:30.412Z,93.55
2022-11-21T20:13:58.449Z,87.55
2022-11-21T20:16:34.074Z,96.97
2022-11-21T20:19:06.836Z,85.35
2022-11-21T20:21:34.249Z,92.15
2022-11-21T20:24:02.015Z,80.50
2022-11-21T20:26:29.119Z,88.55
2022-11-21T20:28:56.668Z,84.43
2022-11-21T20:31:28.977Z,84.32
2022-11-21T20:34:01.412Z,81.25
2022-11-21T20:36:32.459Z,71.47
2022-11-21T20:39:02.541Z,83.75
2022-11-21T20:41:35.221Z,89.72
2022-11-21T20:46:53.394Z,158.15
2022-11-21T20:49:20.866Z,189.85
2022-11-21T20:53:20.621Z,190.68
2022-11-21T20:54:35.655Z,182.93
2022-11-21T20:57:02.525Z,185.80
2022-11-21T20:59:30.094Z,148.30
2022-11-21T21:05:07.373Z,97.70
2022-11-21T21:07:37.617Z,129.15
2022-11-21T21:10:05.469Z,137.57
2022-11-21T21:12:33.002Z,108.53
2022-11-21T21:14:59.873Z,105.13
2022-11-21T21:17:27.395Z,126.03
2022-11-21T21:19:54.251Z,117.47
2022-11-21T21:22:21.382Z,117.25
2022-11-21T21:24:48.394Z,106.78
2022-11-21T21:27:15.637Z,122.28
2022-11-21T21:29:42.519Z,107.82
2022-11-21T21:32:09.739Z,112.22
2022-11-21T21:34:36.792Z,108.85
2022-11-21T21:37:03.955Z,107.82
2022-11-21T21:39:30.796Z,107.70
2022-11-21T21:41:58.081Z,119.63
2022-11-21T21:44:31.552Z,114.18
2022-11-21T21:47:00.303Z,99.70
2022-11-21T21:49:27.179Z,96.65
2022-11-21T21:51:54.330Z,91.72
2022-11-21T21:54:21.523Z,98.00
2022-11-21T21:56:50.008Z,96.05
2022-11-21T21:59:18.231Z,92.50
2022-11-21T22:01:46.037Z,101.05
2022-11-21T22:04:13.353Z,105.72
2022-11-21T22:06:40.879Z,93.72
2022-11-21T22:09:07.839Z,101.95
2022-11-21T22:11:39.284Z,87.97
2022-11-21T22:14:10.945Z,93.95
2022-11-21T22:16:38.611Z,80.38
2022-11-21T22:19:05.501Z,83.28
2022-11-21T22:21:34.794Z,90.25
2022-11-21T22:24:27.480Z,67.53
2022-11-21T22:26:55.359Z,70.10
2022-11-21T22:29:22.298Z,70.60
2022-11-21T22:31:50.975Z,78.38
2022-11-21T22:34:17.961Z,69.70
2022-11-21T22:36:46.701Z,74.63
2022-11-21T22:39:13.869Z,75.63
2022-11-21T22:41:41.088Z,78.88
2022-11-21T22:44:07.927Z,77.82
2022-11-21T22:46:35.225Z,82.18
2022-11-21T22:49:02.064Z,65.07
2022-11-21T22:51:29.990Z,73.65
2022-11-21T22:53:57.319Z,72.75
2022-11-21T22:56:25.763Z,63.60
2022-11-21T22:58:53.067Z,76.15
2022-11-21T23:01:24.833Z,68.82
2022-11-21T23:03:52.633Z,86.13
2022-11-21T23:06:23.675Z,85.00
2022-11-21T23:08:52.316Z,68.25
2022-11-21T23:11:22.841Z,68.05
2022-11-21T23:13:51.057Z,77.70
2022-11-21T23:16:19.150Z,96.72
2022-11-21T23:18:46.185Z,93.95
2022-11-21T23:21:14.200Z,96.55
2022-11-21T23:23:41.386Z,108.45
2022-11-21T23:26:09.965Z,91.82
2022-11-21T23:28:36.989Z,94.28
2022-11-21T23:31:04.416Z,95.93
2022-11-21T23:33:31.307Z,83.35
2022-11-21T23:35:58.489Z,107.50
2022-11-21T23:38:25.389Z,95.35
2022-11-21T23:40:52.599Z,83.43
2022-11-21T23:43:19.836Z,98.38
2022-11-21T23:45:51.673Z,93.30
2022-11-21T23:48:19.271Z,81.53
2022-11-21T23:50:47.563Z,86.70
2022-11-21T23:53:14.604Z,93.45
2022-11-21T23:55:43.264Z,92.28
2022-11-21T23:58:10.772Z,102.03
